Aérodrome :
LOGIN :

S'inscrire | Disclaimer

   EN    FR    IT 

 










Légende :    VFR   VFR Marginal   IFR   IFR Intensif   IFR Très Intensif
Visi : 
Plafond : 
>= 8 km
>= 3000ft
5 à 8 km
1000 à 3000 ft
1500m à 5 km
500 à 1000 ft
800 à 1500m
200 à 500 ft
< 800m
< 200 ft
Symboles :   Orages  Brouillard  Fortes neiges  Fortes précipitations  Vent > 20 kt
SIGMETs :   Divers  Orages  Givrage  Turbulence  Onde Orograph.  Cendres Volcan.







- Altitude de l'aérodrome : 26 ft
- Code IATA : GLA
- Voir les cartes d'approche


EGPF - Glasgow

DERNIER METAR :
  • 151150Z AUTO VRB01KT 9999 NCD 12/06 Q1016

METARs EXPIRÉS :
  • 151120Z AUTO VRB03KT 9999 NCD 11/06 Q1016
  • 151050Z AUTO VRB03KT 9999 NCD 10/06 Q1016
  • 151020Z AUTO VRB03KT 9999 NCD 09/05 Q1016
  • 150950Z AUTO VRB02KT 9999 NCD 08/05 Q1016
  • 150920Z AUTO VRB01KT 9999 NCD 06/06 Q1016

TAF TAF EGPF
Valide du 15 à 12h jusqu'au 16 à 12h UTC


151058Z 1512/1612 VRB03KT CAVOK
PROB40
TEMPO 1603/1609 8000 -RADZ BKN012
BECMG 1609/1612 20010KT BKN025
PROB30
TEMPO 1609/1612 20015G25KT
ATIS : +44 141 887 7449
Pas de NOTAMs connus pour ce terrain.



MET'MAP, la Météo Aéronautique d'un coup d'oeil ! - Copyright ORBIFLY Décembre 2007 - Disclaimer

ORBIFLY MET'MAP TEAM :

Programmation & Développement : Alexandra Zaïnal
Conception & Développement : Baudouin d'Aumeries
Co-Programmation & Développement : Marc-Olivier Méhu
Soutien technique & logistique : Manuel Goepfert

Contact : metmap@orbifly.com




SOURCES & CREDITS :

   NOAA